עמוד ראשי
METAR-TAF:

METAR-TAF

שדות תעופה :

תבוכ, ערב הסעודית

קו רוחב: 28-22N, קו אורך: 036-36E, גובה: 778מטר

תצפית מזג אוויר נוכחית

הדו"ח נערך לפני 35דקות, בשעה 22:00 UTC
רוח 12קשר מכיוון צפון/צפון-מערב
טמפרטורת 33 צלסיוס
לחות 14%
לחץ 1009 hPa
ראות 10 קילומטר או יותר
ללא עננים שבסיסם נמוך מ 5000 רגל או קומולונימבוס

METAR: OETB 152200Z 33012KT CAVOK 33/02 Q1009 NOSIG

זמן: 01:35 (22:35 UTC)

תחזית

הדו"ח נערך לפני 11 שעות ו 35דקות, בשעה 11:00 UTC
תחזית בתוקף מ 15 ב 12 UTC עד 16 ב 18 UTC
רוח 8קשר מכיוון מערב
ראות 10 קילומטר או יותר
ללא עננים שבסיסם נמוך מ 5000 רגל או קומולונימבוס
יעשה מ
15 ב 22 UTC עד 16 ב 00 UTC
רוח 3קשר עם כיוונים משתנים
יעשה מ
16 ב 08 UTC עד 16 ב 10 UTC
רוח 10קשר מכיוון צפון/צפון-מערב
ראות 10 קילומטר או יותר
עננים פזורים בגובה 4000רגל

TAF: OETB 151100Z 1512/1618 28008KT CAVOK BECMG 1522/1600 VRB03KT BECMG 1608/1610 33010KT 9999 SCT040

תצפיות ותחזיות מזג אוויר לגבי יותר מ- 4,000 שדות תעופה ברחבי העולם. דוחות METAR ו- TAF.

התחנות הזמינות מסומנות בנקודות צהובות ואדומות על גבי המפה.

העבר את העכבר לנקודה הצבעונית על מנת לראות את שם התחנה.

לאחר מכן, לחץ כדי לראות את תוכן ואת תחזיות מזג האוויר.

כדי לשנות את המפה: לחץ על הכפתורים הירוקים עם הפלוס השחור כדי להתקרב; על הכפתור הירוק עם המקף כדי להתרחק; או בחיצים הירוקים למפות סמוכות.


METAR-TAF: